Owasco, New York
Current Conditions -  °F | °C
As of 8:54 PM on Saturday 25 Oct 2014 (Local Time) from KSYR Reporting Station
Scattered Clouds Scattered Clouds  
Wind Chill: 54°   Ceiling: Unl
Heat Index: 54°   Visibility: 10mi
Dew Point: 46°   Wind: 6mph
Humidity: 75%   Direction: 260°W
Pressure: 29.59"   Gusts: NA
Location:  42.9235°N, 76.5525°W
Report Text: KSYR 260054Z 26005KT 10SM SCT250 12/08 A2959 RMK AO2 SLP017 T01220078
Loading
Personal Weather Stations






























Interactive Weather Map
Tropical Storm Tracking
New forecast layout! Learn more

10-Day Weather Forecast

Advertisements
Track Severe Weather on mobile